createdAt,value
2022-10-06T00:01:12.798Z,48.00
2022-10-06T00:03:41.278Z,48.20
2022-10-06T00:06:13.097Z,48.40
2022-10-06T00:08:43.408Z,48.30
2022-10-06T00:11:14.018Z,48.34
2022-10-06T00:13:42.988Z,48.38
2022-10-06T00:16:14.573Z,48.50
2022-10-06T00:18:43.061Z,48.58
2022-10-06T00:21:11.468Z,48.66
2022-10-06T00:23:39.889Z,48.51
2022-10-06T00:26:14.662Z,48.70
2022-10-06T00:28:43.054Z,48.93
2022-10-06T00:31:12.848Z,48.84
2022-10-06T00:33:41.499Z,48.75
2022-10-06T00:36:10.170Z,48.72
2022-10-06T00:38:38.552Z,48.72
2022-10-06T00:41:07.217Z,48.67
2022-10-06T00:43:50.328Z,48.82
2022-10-06T00:46:29.352Z,48.85
2022-10-06T00:49:02.217Z,48.90
2022-10-06T00:51:31.690Z,48.87
2022-10-06T00:54:00.286Z,49.10
2022-10-06T00:56:28.838Z,48.96
2022-10-06T00:58:57.265Z,48.98
2022-10-06T01:01:27.377Z,49.05
2022-10-06T01:04:01.507Z,49.16
2022-10-06T01:06:29.841Z,49.07
2022-10-06T01:08:58.261Z,49.08
2022-10-06T01:11:26.706Z,49.22
2022-10-06T01:13:55.685Z,49.09
2022-10-06T01:16:27.147Z,49.30
2022-10-06T01:18:57.458Z,49.36
2022-10-06T01:21:35.064Z,49.39
2022-10-06T01:24:05.769Z,49.46
2022-10-06T01:26:36.917Z,49.32
2022-10-06T01:29:05.450Z,49.41
2022-10-06T01:31:33.926Z,49.43
2022-10-06T01:34:02.302Z,49.57
2022-10-06T01:36:30.652Z,49.49
2022-10-06T01:38:58.966Z,49.60
2022-10-06T01:41:30.496Z,49.62
2022-10-06T01:43:58.844Z,49.58
2022-10-06T01:46:27.503Z,49.57
2022-10-06T01:48:55.932Z,49.63
2022-10-06T01:51:24.292Z,49.47
2022-10-06T01:53:52.650Z,49.57
2022-10-06T01:56:21.205Z,49.64
2022-10-06T01:58:51.110Z,49.66
2022-10-06T02:01:19.503Z,49.74
2022-10-06T02:03:47.880Z,49.64
2022-10-06T02:06:16.305Z,49.63
2022-10-06T02:08:44.874Z,49.68
2022-10-06T02:11:13.912Z,49.81
2022-10-06T02:13:42.303Z,49.85
2022-10-06T02:16:14.031Z,49.82
2022-10-06T02:18:42.699Z,49.76
2022-10-06T02:21:17.345Z,49.77
2022-10-06T02:23:45.891Z,50.04
2022-10-06T02:26:16.091Z,50.13
2022-10-06T02:28:45.168Z,50.16
2022-10-06T02:31:16.329Z,50.10
2022-10-06T02:33:45.385Z,50.01
2022-10-06T02:36:16.712Z,50.20
2022-10-06T02:38:45.496Z,50.41
2022-10-06T02:41:13.846Z,50.24
2022-10-06T02:43:42.215Z,50.37
2022-10-06T02:46:15.007Z,50.44
2022-10-06T02:48:44.047Z,50.41
2022-10-06T02:51:15.687Z,50.36
2022-10-06T02:53:44.450Z,50.56
2022-10-06T02:56:16.484Z,50.49
2022-10-06T02:58:46.094Z,50.62
2022-10-06T03:01:18.913Z,50.64
2022-10-06T03:03:47.977Z,50.63
2022-10-06T03:06:25.221Z,50.71
2022-10-06T03:08:56.940Z,50.53
2022-10-06T03:11:28.163Z,50.79
2022-10-06T03:13:57.175Z,50.64
2022-10-06T03:16:30.191Z,50.83
2022-10-06T03:18:59.188Z,50.71
2022-10-06T03:21:30.229Z,50.94
2022-10-06T03:24:00.288Z,50.78
2022-10-06T03:26:30.655Z,50.87
2022-10-06T03:29:00.279Z,50.88
2022-10-06T03:31:31.501Z,50.92
2022-10-06T03:34:00.112Z,50.88
2022-10-06T03:36:32.424Z,50.91
2022-10-06T03:39:01.060Z,50.97
2022-10-06T03:41:31.582Z,50.96
2022-10-06T03:44:01.401Z,50.96
2022-10-06T03:46:33.674Z,51.05
2022-10-06T03:49:02.740Z,50.95
2022-10-06T03:51:33.558Z,51.01
2022-10-06T03:54:02.393Z,50.93
2022-10-06T03:56:33.175Z,50.91
2022-10-06T03:59:03.388Z,51.01
2022-10-06T04:01:36.025Z,51.10
2022-10-06T04:04:05.897Z,51.27
2022-10-06T04:06:37.060Z,51.21
2022-10-06T04:09:10.289Z,51.25
2022-10-06T04:11:43.331Z,51.34
2022-10-06T04:14:15.427Z,51.47
2022-10-06T04:16:47.933Z,51.49
2022-10-06T04:19:18.228Z,51.40
2022-10-06T04:21:48.489Z,51.50
2022-10-06T04:24:18.575Z,51.52
2022-10-06T04:26:49.043Z,51.49
2022-10-06T04:29:17.792Z,51.52
2022-10-06T04:31:47.572Z,51.67
2022-10-06T04:34:15.956Z,51.68
2022-10-06T04:36:44.914Z,51.57
2022-10-06T04:39:14.121Z,51.70
2022-10-06T04:41:47.485Z,51.79
2022-10-06T04:44:15.941Z,51.57
2022-10-06T04:46:45.219Z,51.79
2022-10-06T04:49:19.952Z,51.76
2022-10-06T04:51:50.113Z,51.72
2022-10-06T04:54:18.823Z,51.59
2022-10-06T04:56:47.237Z,51.85
2022-10-06T04:59:15.660Z,51.86
2022-10-06T05:01:44.155Z,51.83
2022-10-06T05:04:13.900Z,51.85
2022-10-06T05:06:43.828Z,52.13
2022-10-06T05:09:16.782Z,51.87
2022-10-06T05:11:45.172Z,52.04
2022-10-06T05:14:13.539Z,51.89
2022-10-06T05:16:43.127Z,52.05
2022-10-06T05:19:11.707Z,51.84
2022-10-06T05:21:41.479Z,52.03
2022-10-06T05:24:10.152Z,51.83
2022-10-06T05:26:38.684Z,51.90
2022-10-06T05:29:07.045Z,52.06
2022-10-06T05:31:38.957Z,52.07
2022-10-06T05:34:08.031Z,52.02
2022-10-06T05:36:37.102Z,52.10
2022-10-06T05:39:06.895Z,52.06
2022-10-06T05:41:37.766Z,52.15
2022-10-06T05:44:06.789Z,51.86
2022-10-06T05:46:35.984Z,51.95
2022-10-06T05:49:07.259Z,52.04
2022-10-06T05:51:38.856Z,51.81
2022-10-06T05:54:08.678Z,52.06
2022-10-06T05:56:39.051Z,51.97
2022-10-06T05:59:07.857Z,51.93
2022-10-06T06:01:39.954Z,51.99
2022-10-06T06:04:11.944Z,51.95
2022-10-06T06:06:42.507Z,51.84
2022-10-06T06:09:15.288Z,52.05
2022-10-06T06:11:46.433Z,51.65
2022-10-06T06:14:17.182Z,51.71
2022-10-06T06:16:46.565Z,51.54
2022-10-06T06:19:15.480Z,51.69
2022-10-06T06:21:43.873Z,51.56
2022-10-06T06:24:13.594Z,51.53
2022-10-06T06:26:42.020Z,51.48
2022-10-06T06:29:10.375Z,51.27
2022-10-06T06:31:41.445Z,51.28
2022-10-06T06:34:11.930Z,51.27
2022-10-06T06:36:42.173Z,51.04
2022-10-06T06:39:14.381Z,51.14
2022-10-06T06:41:46.164Z,51.06
2022-10-06T06:44:15.378Z,50.82
2022-10-06T06:46:49.200Z,50.68
2022-10-06T06:49:19.087Z,50.75
2022-10-06T06:51:49.901Z,50.64
2022-10-06T06:54:19.949Z,50.46
2022-10-06T06:56:48.973Z,50.41
2022-10-06T06:59:17.956Z,50.28
2022-10-06T07:01:48.807Z,50.23
2022-10-06T07:04:18.755Z,50.14
2022-10-06T07:06:58.036Z,50.15
2022-10-06T07:09:28.085Z,50.08
2022-10-06T07:11:56.555Z,49.93
2022-10-06T07:14:25.315Z,49.86
2022-10-06T07:17:11.374Z,49.73
2022-10-06T07:19:57.394Z,49.45
2022-10-06T07:22:46.121Z,49.48
2022-10-06T07:25:26.004Z,49.13
2022-10-06T07:27:55.868Z,49.09
2022-10-06T07:30:27.029Z,48.77
2022-10-06T07:32:56.333Z,48.59
2022-10-06T07:35:26.102Z,48.72
2022-10-06T07:37:54.725Z,48.45
2022-10-06T07:40:24.567Z,48.00
2022-10-06T07:42:53.025Z,47.80
2022-10-06T07:45:42.350Z,47.55
2022-10-06T07:48:14.974Z,47.31
2022-10-06T07:50:44.517Z,47.25
2022-10-06T07:53:13.101Z,47.24
2022-10-06T07:55:46.423Z,46.89
2022-10-06T07:58:17.990Z,46.50
2022-10-06T08:00:48.685Z,46.18
2022-10-06T08:03:18.923Z,46.35
2022-10-06T08:05:48.122Z,45.97
2022-10-06T08:08:17.844Z,45.50
2022-10-06T08:10:54.958Z,45.52
2022-10-06T08:13:24.013Z,44.80
2022-10-06T08:15:56.513Z,44.84
2022-10-06T08:18:45.539Z,44.22
2022-10-06T08:21:17.052Z,43.98
2022-10-06T08:23:47.086Z,43.76
2022-10-06T08:26:19.774Z,43.03
2022-10-06T08:28:50.789Z,42.98
2022-10-06T08:31:21.733Z,41.88
2022-10-06T08:33:54.768Z,41.55
2022-10-06T08:36:28.308Z,40.77
2022-10-06T08:38:59.180Z,40.13
2022-10-06T08:41:39.523Z,39.01
2022-10-06T08:44:23.512Z,38.68
2022-10-06T08:47:00.590Z,38.26
2022-10-06T08:49:36.755Z,38.26
2022-10-06T08:52:17.893Z,37.51
2022-10-06T08:54:53.028Z,38.03
2022-10-06T08:57:29.730Z,37.11
2022-10-06T09:00:01.400Z,36.96
2022-10-06T09:02:33.208Z,36.77
2022-10-06T09:05:06.836Z,36.79
2022-10-06T09:07:48.381Z,36.82
2022-10-06T09:10:36.134Z,36.29
2022-10-06T09:13:12.843Z,36.19
2022-10-06T09:15:50.151Z,35.40
2022-10-06T09:18:43.455Z,35.68
2022-10-06T09:21:19.554Z,35.92
2022-10-06T09:23:57.096Z,35.85
2022-10-06T09:26:31.373Z,36.15
2022-10-06T09:29:01.495Z,35.19
2022-10-06T09:31:32.948Z,35.03
2022-10-06T09:34:06.754Z,35.50
2022-10-06T09:37:02.795Z,35.82
2022-10-06T09:39:36.608Z,35.62
2022-10-06T09:42:13.187Z,35.41
2022-10-06T09:44:58.146Z,36.03
2022-10-06T09:47:45.198Z,36.11
2022-10-06T09:50:25.745Z,36.07
2022-10-06T09:53:18.607Z,35.48
2022-10-06T09:55:54.938Z,35.51
2022-10-06T09:58:31.461Z,35.76
2022-10-06T10:01:04.027Z,35.34
2022-10-06T10:04:15.694Z,34.94
2022-10-06T10:06:40.635Z,35.44
2022-10-06T10:09:27.262Z,34.43
2022-10-06T10:12:27.869Z,34.87
2022-10-06T10:15:04.204Z,34.70
2022-10-06T10:17:43.986Z,34.13
2022-10-06T10:20:34.449Z,34.71
2022-10-06T10:23:19.896Z,34.69
2022-10-06T10:26:08.062Z,34.31
2022-10-06T10:29:08.045Z,34.35
2022-10-06T10:31:54.821Z,33.95
2022-10-06T10:34:52.923Z,33.13
2022-10-06T10:37:26.732Z,32.17
2022-10-06T10:40:00.060Z,31.08
2022-10-06T10:42:37.701Z,30.36
2022-10-06T10:45:15.237Z,30.83
2022-10-06T10:47:46.469Z,29.10
2022-10-06T10:50:26.265Z,29.52
2022-10-06T10:53:01.320Z,29.71
2022-10-06T10:55:36.888Z,29.26
2022-10-06T10:58:16.138Z,29.15
2022-10-06T11:00:49.208Z,28.86
2022-10-06T11:03:17.845Z,28.43
2022-10-06T11:06:16.604Z,29.33
2022-10-06T11:08:56.776Z,28.55
2022-10-06T11:11:51.290Z,28.68
2022-10-06T11:14:34.090Z,27.98
2022-10-06T11:17:13.234Z,26.53
2022-10-06T11:19:52.857Z,26.74
2022-10-06T11:22:31.924Z,26.89
2022-10-06T11:25:13.859Z,26.54
2022-10-06T11:27:50.393Z,26.88
2022-10-06T11:30:26.417Z,26.01
2022-10-06T11:33:10.671Z,26.75
2022-10-06T11:35:43.767Z,25.82
2022-10-06T11:38:26.097Z,25.44
2022-10-06T11:41:10.124Z,24.50
2022-10-06T11:43:48.649Z,24.17
2022-10-06T11:46:38.281Z,23.74
2022-10-06T11:49:52.174Z,23.41
2022-10-06T11:52:57.113Z,23.40
2022-10-06T11:55:29.115Z,22.97
2022-10-06T11:58:37.857Z,24.41
2022-10-06T12:01:06.246Z,24.28
2022-10-06T12:04:13.391Z,24.21
2022-10-06T12:07:04.288Z,23.88
2022-10-06T12:09:53.625Z,24.36
2022-10-06T12:13:01.823Z,24.54
2022-10-06T12:19:19.570Z,24.53
2022-10-06T12:22:01.975Z,25.06
2022-10-06T12:24:41.460Z,24.99
2022-10-06T12:27:34.458Z,24.80
2022-10-06T12:30:18.438Z,25.25
2022-10-06T12:32:54.741Z,24.60
2022-10-06T12:35:33.269Z,24.73
2022-10-06T12:38:05.044Z,24.99
2022-10-06T12:40:57.979Z,24.06
2022-10-06T12:43:48.911Z,23.65
2022-10-06T12:46:35.798Z,23.33
2022-10-06T12:49:32.098Z,23.60
2022-10-06T12:52:16.716Z,23.65
2022-10-06T12:54:57.314Z,23.40
2022-10-06T12:57:30.817Z,22.65
2022-10-06T12:59:59.338Z,23.10
2022-10-06T13:02:29.937Z,22.54
2022-10-06T13:05:02.563Z,22.64
2022-10-06T13:07:33.768Z,22.73
2022-10-06T13:10:21.695Z,22.45
2022-10-06T13:12:52.258Z,22.21
2022-10-06T13:15:27.875Z,21.36
2022-10-06T13:18:03.856Z,21.14
2022-10-06T13:20:40.978Z,19.87
2022-10-06T13:23:34.464Z,20.85
2022-10-06T13:26:05.306Z,20.37
2022-10-06T13:28:49.326Z,20.56
2022-10-06T13:31:22.715Z,21.30
2022-10-06T13:33:58.397Z,20.87
2022-10-06T13:36:29.067Z,20.74
2022-10-06T13:38:58.122Z,20.87
2022-10-06T13:41:31.363Z,21.92
2022-10-06T13:44:03.976Z,22.39
2022-10-06T13:46:40.287Z,22.52
2022-10-06T13:49:22.221Z,22.96
2022-10-06T13:51:54.334Z,23.01
2022-10-06T13:54:29.622Z,23.61
2022-10-06T13:56:58.796Z,23.77
2022-10-06T13:59:38.568Z,23.65
2022-10-06T14:02:25.428Z,24.40
2022-10-06T14:05:27.119Z,24.22
2022-10-06T14:07:58.843Z,24.54
2022-10-06T14:10:37.182Z,25.19
2022-10-06T14:13:10.366Z,25.10
2022-10-06T14:15:49.131Z,25.63
2022-10-06T14:18:23.454Z,25.63
2022-10-06T14:20:54.585Z,25.80
2022-10-06T14:23:52.004Z,26.32
2022-10-06T14:26:25.094Z,26.57
2022-10-06T14:28:55.032Z,26.91
2022-10-06T14:31:25.712Z,27.14
2022-10-06T14:33:56.369Z,27.26
2022-10-06T14:36:28.518Z,27.43
2022-10-06T14:38:58.675Z,27.60
2022-10-06T14:41:30.381Z,27.73
2022-10-06T14:44:01.555Z,27.75
2022-10-06T14:46:31.160Z,27.78
2022-10-06T14:48:59.852Z,27.87
2022-10-06T14:51:32.067Z,27.89
2022-10-06T14:54:03.798Z,27.92
2022-10-06T14:56:34.563Z,28.17
2022-10-06T14:59:06.342Z,28.17
2022-10-06T15:01:37.370Z,28.28
2022-10-06T15:04:08.965Z,28.36
2022-10-06T15:06:56.636Z,28.40
2022-10-06T15:09:25.109Z,28.55
2022-10-06T15:11:54.862Z,28.71
2022-10-06T15:14:24.111Z,28.59
2022-10-06T15:16:54.207Z,28.84
2022-10-06T15:19:22.772Z,28.91
2022-10-06T15:21:52.538Z,29.14
2022-10-06T15:24:21.457Z,29.33
2022-10-06T15:27:07.686Z,29.14
2022-10-06T15:29:36.705Z,29.41
2022-10-06T15:32:07.291Z,29.27
2022-10-06T15:34:37.694Z,29.70
2022-10-06T15:37:07.991Z,29.84
2022-10-06T15:39:38.448Z,29.86
2022-10-06T15:42:08.708Z,29.74
2022-10-06T15:44:37.794Z,30.08
2022-10-06T15:47:07.672Z,30.13
2022-10-06T15:49:40.535Z,30.14
2022-10-06T15:52:13.422Z,30.33
2022-10-06T15:54:49.828Z,30.54
2022-10-06T15:57:21.258Z,30.90
2022-10-06T15:59:50.230Z,31.11
2022-10-06T16:02:21.055Z,30.91
2022-10-06T16:05:30.521Z,31.17
2022-10-06T16:08:00.253Z,31.40
2022-10-06T16:10:28.742Z,31.17
2022-10-06T16:12:57.199Z,31.17
2022-10-06T16:15:25.652Z,31.30
2022-10-06T16:17:53.992Z,31.46
2022-10-06T16:20:22.595Z,32.11
2022-10-06T16:22:50.974Z,31.70
2022-10-06T16:25:20.769Z,31.90
2022-10-06T16:27:49.160Z,32.52
2022-10-06T16:30:18.035Z,32.58
2022-10-06T16:32:46.426Z,32.85
2022-10-06T16:35:18.372Z,32.93
2022-10-06T16:37:49.959Z,32.80
2022-10-06T16:40:22.578Z,32.93
2022-10-06T16:42:52.433Z,33.17
2022-10-06T16:45:20.800Z,33.49
2022-10-06T16:47:49.195Z,33.33
2022-10-06T16:50:17.851Z,33.40
2022-10-06T16:52:46.196Z,33.47
2022-10-06T16:55:14.716Z,33.92
2022-10-06T16:57:45.054Z,34.10
2022-10-06T17:00:14.835Z,34.17
2022-10-06T17:02:43.168Z,34.14
2022-10-06T17:05:11.635Z,34.32
2022-10-06T17:07:39.996Z,34.54
2022-10-06T17:10:22.165Z,34.84
2022-10-06T17:12:52.016Z,34.91
2022-10-06T17:15:20.501Z,34.97
2022-10-06T17:17:48.998Z,34.91
2022-10-06T17:20:17.582Z,35.39
2022-10-06T17:22:45.976Z,35.22
2022-10-06T17:25:15.317Z,35.40
2022-10-06T17:27:43.747Z,35.57
2022-10-06T17:30:15.436Z,35.80
2022-10-06T17:32:44.629Z,35.94
2022-10-06T17:35:13.020Z,36.10
2022-10-06T17:37:42.362Z,36.17
2022-10-06T17:40:11.812Z,36.07
2022-10-06T17:42:41.871Z,36.37
2022-10-06T17:45:14.191Z,36.25
2022-10-06T17:47:45.011Z,36.32
2022-10-06T17:50:14.448Z,36.45
2022-10-06T17:52:43.394Z,36.59
2022-10-06T17:55:12.198Z,36.77
2022-10-06T17:57:41.200Z,36.74
2022-10-06T18:00:15.094Z,36.80
2022-10-06T18:02:44.463Z,36.90
2022-10-06T18:05:15.192Z,36.81
2022-10-06T18:07:43.694Z,36.96
2022-10-06T18:10:29.765Z,37.05
2022-10-06T18:12:58.856Z,37.17
2022-10-06T18:15:29.082Z,37.26
2022-10-06T18:17:58.116Z,37.34
2022-10-06T18:20:30.183Z,37.40
2022-10-06T18:22:58.626Z,37.58
2022-10-06T18:25:27.964Z,37.69
2022-10-06T18:27:56.915Z,37.85
2022-10-06T18:30:29.378Z,37.75
2022-10-06T18:36:15.080Z,38.36
2022-10-06T18:38:47.548Z,38.23
2022-10-06T18:41:21.134Z,38.42
2022-10-06T18:43:51.416Z,38.62
2022-10-06T18:46:37.660Z,38.77
2022-10-06T18:49:12.484Z,38.91
2022-10-06T18:51:43.446Z,38.72
2022-10-06T18:54:15.323Z,38.87
2022-10-06T18:56:47.700Z,38.96
2022-10-06T18:59:16.671Z,39.02
2022-10-06T19:01:49.169Z,38.98
2022-10-06T19:04:23.512Z,39.36
2022-10-06T19:06:55.340Z,39.21
2022-10-06T19:09:26.944Z,39.35
2022-10-06T19:11:58.419Z,39.52
2022-10-06T19:14:30.325Z,39.51
2022-10-06T19:17:02.269Z,39.43
2022-10-06T19:19:33.619Z,39.51
2022-10-06T19:22:05.928Z,39.67
2022-10-06T19:24:41.701Z,39.62
2022-10-06T19:27:15.782Z,39.86
2022-10-06T19:29:48.949Z,39.71
2022-10-06T19:32:21.074Z,40.21
2022-10-06T19:34:51.652Z,40.16
2022-10-06T19:37:21.561Z,40.26
2022-10-06T19:39:50.867Z,40.27
2022-10-06T19:42:38.859Z,40.13
2022-10-06T19:45:11.860Z,40.40
2022-10-06T19:47:41.693Z,40.43
2022-10-06T19:50:12.974Z,40.45
2022-10-06T19:52:42.241Z,40.69
2022-10-06T19:55:11.461Z,40.65
2022-10-06T19:57:40.714Z,40.61
2022-10-06T20:00:11.794Z,41.06
2022-10-06T20:02:42.829Z,41.04
2022-10-06T20:05:15.318Z,40.90
2022-10-06T20:07:46.570Z,41.15
2022-10-06T20:10:15.960Z,41.28
2022-10-06T20:12:44.381Z,41.24
2022-10-06T20:15:13.079Z,41.43
2022-10-06T20:17:42.633Z,41.56
2022-10-06T20:20:14.420Z,41.50
2022-10-06T20:22:42.828Z,41.65
2022-10-06T20:25:11.803Z,41.56
2022-10-06T20:27:40.178Z,41.71
2022-10-06T20:30:10.783Z,41.70
2022-10-06T20:32:39.405Z,41.72
2022-10-06T20:35:09.686Z,41.81
2022-10-06T20:37:42.042Z,42.27
2022-10-06T20:40:29.117Z,41.90
2022-10-06T20:42:59.431Z,41.94
2022-10-06T20:45:27.784Z,41.92
2022-10-06T20:47:58.249Z,42.05
2022-10-06T20:50:26.872Z,42.25
2022-10-06T20:52:57.656Z,42.17
2022-10-06T20:55:26.066Z,42.68
2022-10-06T20:57:54.932Z,42.33
2022-10-06T21:00:23.613Z,42.48
2022-10-06T21:02:52.101Z,42.73
2022-10-06T21:05:20.596Z,43.07
2022-10-06T21:07:49.552Z,43.06
2022-10-06T21:10:19.410Z,43.03
2022-10-06T21:12:48.226Z,42.81
2022-10-06T21:15:17.222Z,42.88
2022-10-06T21:17:46.682Z,42.90
2022-10-06T21:20:15.579Z,43.42
2022-10-06T21:22:44.060Z,43.51
2022-10-06T21:25:12.628Z,43.60
2022-10-06T21:27:42.754Z,43.34
2022-10-06T21:30:13.721Z,43.52
2022-10-06T21:32:42.665Z,43.87
2022-10-06T21:35:11.313Z,43.66
2022-10-06T21:37:40.259Z,43.69
2022-10-06T21:40:09.875Z,44.10
2022-10-06T21:42:38.393Z,43.82
2022-10-06T21:45:09.236Z,44.17
2022-10-06T21:47:37.717Z,44.18
2022-10-06T21:50:07.149Z,44.19
2022-10-06T21:52:35.589Z,44.21
2022-10-06T21:55:04.197Z,44.20
2022-10-06T21:57:32.668Z,44.20
2022-10-06T22:00:01.122Z,44.51
2022-10-06T22:02:31.003Z,44.37
2022-10-06T22:04:59.480Z,44.35
2022-10-06T22:07:27.930Z,44.44
2022-10-06T22:09:56.467Z,44.48
2022-10-06T22:12:24.917Z,44.82
2022-10-06T22:14:54.937Z,44.61
2022-10-06T22:17:23.763Z,44.65
2022-10-06T22:19:53.751Z,45.18
2022-10-06T22:22:22.370Z,45.20
2022-10-06T22:24:51.171Z,44.90
2022-10-06T22:27:19.666Z,44.90
2022-10-06T22:29:48.124Z,45.37
2022-10-06T22:32:16.613Z,45.12
2022-10-06T22:34:45.067Z,45.36
2022-10-06T22:37:14.944Z,45.32
2022-10-06T22:39:43.385Z,45.45
2022-10-06T22:42:11.841Z,45.34
2022-10-06T22:44:40.268Z,45.77
2022-10-06T22:47:08.810Z,45.40
2022-10-06T22:49:37.310Z,45.60
2022-10-06T22:52:05.785Z,46.11
2022-10-06T22:54:35.620Z,45.99
2022-10-06T22:57:05.288Z,46.29
2022-10-06T22:59:33.762Z,46.34
2022-10-06T23:02:02.264Z,46.20
2022-10-06T23:04:31.251Z,46.47
2022-10-06T23:06:59.723Z,46.54
2022-10-06T23:09:28.169Z,46.38
2022-10-06T23:11:58.006Z,46.44
2022-10-06T23:14:26.529Z,46.92
2022-10-06T23:16:55.051Z,46.78
2022-10-06T23:19:23.558Z,47.05
2022-10-06T23:21:52.009Z,47.08
2022-10-06T23:24:20.466Z,47.38
2022-10-06T23:26:48.957Z,47.24
2022-10-06T23:29:18.950Z,47.40
2022-10-06T23:31:47.410Z,47.35
2022-10-06T23:34:15.928Z,47.55
2022-10-06T23:36:44.367Z,47.55
2022-10-06T23:39:13.057Z,47.30
2022-10-06T23:41:42.144Z,47.48
2022-10-06T23:44:10.611Z,47.46
2022-10-06T23:46:40.450Z,47.67
2022-10-06T23:49:08.881Z,47.61
2022-10-06T23:51:37.359Z,47.90
2022-10-06T23:54:06.232Z,47.90
2022-10-06T23:56:34.704Z,47.96
2022-10-06T23:59:03.165Z,47.99
